createdAt,value
2024-03-08T00:01:20.722Z,18.98
2024-03-08T00:03:23.824Z,18.48
2024-03-08T00:05:26.422Z,17.52
2024-03-08T00:07:29.583Z,19.20
2024-03-08T00:09:32.149Z,20.95
2024-03-08T00:11:37.182Z,20.23
2024-03-08T00:13:39.950Z,20.48
2024-03-08T00:15:43.136Z,22.27
2024-03-08T00:17:46.675Z,24.45
2024-03-08T00:19:49.983Z,21.08
2024-03-08T00:21:52.867Z,21.17
2024-03-08T00:23:58.003Z,22.80
2024-03-08T00:26:00.746Z,21.13
2024-03-08T00:28:03.330Z,19.65
2024-03-08T00:30:07.332Z,21.65
2024-03-08T00:32:10.640Z,22.25
2024-03-08T00:34:13.521Z,20.30
2024-03-08T00:36:16.463Z,21.48
2024-03-08T00:38:20.530Z,20.77
2024-03-08T00:40:23.985Z,21.95
2024-03-08T00:42:26.457Z,21.67
2024-03-08T00:44:28.963Z,19.63
2024-03-08T00:46:33.112Z,20.52
2024-03-08T00:48:36.086Z,19.45
2024-03-08T00:50:38.604Z,20.42
2024-03-08T00:52:41.180Z,20.25
2024-03-08T00:54:45.149Z,19.77
2024-03-08T00:56:47.768Z,22.23
2024-03-08T00:58:50.430Z,21.77
2024-03-08T01:00:52.970Z,22.30
2024-03-08T01:02:55.372Z,19.58
2024-03-08T01:04:57.629Z,22.83
2024-03-08T01:07:00.815Z,22.05
2024-03-08T01:09:03.801Z,22.80
2024-03-08T01:11:06.520Z,22.08
2024-03-08T01:13:09.138Z,22.27
2024-03-08T01:15:14.925Z,23.67
2024-03-08T01:17:17.469Z,21.35
2024-03-08T01:19:20.012Z,23.30
2024-03-08T01:21:24.049Z,23.92
2024-03-08T01:23:26.469Z,21.98
2024-03-08T01:25:29.326Z,24.95
2024-03-08T01:27:32.465Z,25.17
2024-03-08T01:29:34.886Z,20.88
2024-03-08T01:31:38.214Z,23.27
2024-03-08T01:33:41.731Z,24.40
2024-03-08T01:35:44.623Z,24.98
2024-03-08T01:37:46.963Z,24.63
2024-03-08T01:39:49.784Z,22.67
2024-03-08T01:41:52.396Z,25.77
2024-03-08T01:43:55.565Z,25.55
2024-03-08T01:46:01.599Z,24.45
2024-03-08T01:48:04.304Z,25.02
2024-03-08T01:50:10.349Z,25.85
2024-03-08T01:52:12.885Z,24.13
2024-03-08T01:54:18.016Z,25.73
2024-03-08T01:56:21.119Z,25.73
2024-03-08T01:58:24.432Z,24.30
2024-03-08T02:00:28.017Z,25.35
2024-03-08T02:02:36.286Z,23.92
2024-03-08T02:04:40.073Z,24.00
2024-03-08T02:06:42.733Z,26.15
2024-03-08T02:08:46.795Z,26.80
2024-03-08T02:10:50.927Z,26.20
2024-03-08T02:12:54.300Z,25.80
2024-03-08T02:14:56.926Z,26.30
2024-03-08T02:17:03.510Z,24.35
2024-03-08T02:19:06.116Z,25.40
2024-03-08T02:21:10.183Z,24.23
2024-03-08T02:23:13.050Z,26.33
2024-03-08T02:25:16.144Z,25.15
2024-03-08T02:27:26.177Z,26.45
2024-03-08T02:29:29.144Z,24.40
2024-03-08T02:31:31.910Z,26.40
2024-03-08T02:33:34.544Z,25.35
2024-03-08T02:35:38.147Z,25.00
2024-03-08T02:37:40.553Z,25.83
2024-03-08T02:39:43.383Z,25.48
2024-03-08T02:41:45.973Z,25.25
2024-03-08T02:43:49.095Z,24.92
2024-03-08T02:45:52.209Z,25.40
2024-03-08T02:47:55.357Z,25.70
2024-03-08T02:49:58.481Z,24.27
2024-03-08T02:52:01.101Z,27.20
2024-03-08T02:54:05.515Z,24.15
2024-03-08T02:56:10.663Z,25.08
2024-03-08T02:58:13.800Z,27.52
2024-03-08T03:00:17.250Z,25.20
2024-03-08T03:02:20.046Z,25.48
2024-03-08T03:04:22.574Z,26.33
2024-03-08T03:06:25.043Z,26.73
2024-03-08T03:08:27.845Z,23.67
2024-03-08T03:10:30.330Z,26.00
2024-03-08T03:12:35.188Z,25.65
2024-03-08T03:14:39.866Z,25.42
2024-03-08T03:16:44.991Z,27.20
2024-03-08T03:18:47.862Z,26.08
2024-03-08T03:20:51.201Z,24.88
2024-03-08T03:22:54.205Z,25.08
2024-03-08T03:24:59.472Z,23.67
2024-03-08T03:27:01.813Z,26.15
2024-03-08T03:29:05.131Z,25.27
2024-03-08T03:31:10.627Z,24.27
2024-03-08T03:33:14.319Z,23.83
2024-03-08T03:35:17.464Z,24.58
2024-03-08T03:37:21.420Z,27.65
2024-03-08T03:39:24.609Z,26.90
2024-03-08T03:41:27.609Z,25.75
2024-03-08T03:43:30.116Z,25.48
2024-03-08T03:45:37.215Z,25.60
2024-03-08T03:47:40.760Z,23.63
2024-03-08T03:49:44.170Z,25.73
2024-03-08T03:51:47.036Z,23.85
2024-03-08T03:53:50.091Z,26.10
2024-03-08T03:55:53.545Z,25.30
2024-03-08T03:57:57.153Z,26.92
2024-03-08T03:59:59.983Z,26.48
2024-03-08T04:02:02.565Z,26.40
2024-03-08T04:04:06.621Z,25.30
2024-03-08T04:06:10.139Z,25.17
2024-03-08T04:08:13.198Z,27.38
2024-03-08T04:10:16.003Z,26.92
2024-03-08T04:12:18.597Z,26.45
2024-03-08T04:14:21.022Z,23.65
2024-03-08T04:16:23.625Z,25.13
2024-03-08T04:18:26.729Z,26.85
2024-03-08T04:20:29.332Z,25.00
2024-03-08T04:22:32.295Z,25.55
2024-03-08T04:24:35.246Z,24.75
2024-03-08T04:26:38.087Z,25.15
2024-03-08T04:28:41.102Z,26.20
2024-03-08T04:30:43.565Z,24.17
2024-03-08T04:32:48.011Z,24.02
2024-03-08T04:34:50.855Z,23.88
2024-03-08T04:36:53.619Z,26.05
2024-03-08T04:38:56.575Z,23.27
2024-03-08T04:41:00.773Z,24.42
2024-03-08T04:43:04.596Z,22.98
2024-03-08T04:45:09.899Z,26.15
2024-03-08T04:47:13.289Z,25.13
2024-03-08T04:49:16.445Z,26.23
2024-03-08T04:51:21.177Z,23.67
2024-03-08T04:53:23.580Z,25.65
2024-03-08T04:55:26.305Z,23.65
2024-03-08T04:57:29.498Z,24.63
2024-03-08T04:59:32.091Z,23.95
2024-03-08T05:01:34.794Z,23.02
2024-03-08T05:03:37.405Z,27.02
2024-03-08T05:05:39.779Z,23.88
2024-03-08T05:07:42.346Z,25.55
2024-03-08T05:09:52.918Z,25.15
2024-03-08T05:11:55.972Z,25.33
2024-03-08T05:14:00.343Z,24.90
2024-03-08T05:16:02.992Z,24.73
2024-03-08T05:18:05.838Z,24.10
2024-03-08T05:20:09.737Z,24.45
2024-03-08T05:22:12.577Z,25.55
2024-03-08T05:24:17.840Z,23.02
2024-03-08T05:26:20.612Z,23.33
2024-03-08T05:28:23.057Z,23.90
2024-03-08T05:30:25.763Z,27.58
2024-03-08T05:32:30.563Z,25.17
2024-03-08T05:34:34.666Z,25.35
2024-03-08T05:36:37.352Z,25.00
2024-03-08T05:38:39.817Z,25.13
2024-03-08T05:40:44.702Z,24.05
2024-03-08T05:42:47.977Z,25.67
2024-03-08T05:44:51.157Z,24.13
2024-03-08T05:46:54.670Z,24.17
2024-03-08T05:48:57.448Z,24.52
2024-03-08T05:51:01.826Z,26.70
2024-03-08T05:53:04.675Z,24.42
2024-03-08T05:55:09.306Z,26.60
2024-03-08T05:57:12.579Z,22.88
2024-03-08T05:59:15.359Z,23.50
2024-03-08T06:01:18.263Z,25.15
2024-03-08T06:03:23.309Z,23.33
2024-03-08T06:05:26.711Z,23.95
2024-03-08T06:07:29.416Z,26.27
2024-03-08T06:09:32.311Z,22.92
2024-03-08T06:11:34.925Z,23.95
2024-03-08T06:13:38.132Z,23.48
2024-03-08T06:15:41.130Z,24.58
2024-03-08T06:17:44.297Z,25.05
2024-03-08T06:19:48.071Z,24.40
2024-03-08T06:21:50.834Z,22.52
2024-03-08T06:23:56.659Z,24.17
2024-03-08T06:25:59.566Z,22.35
2024-03-08T06:28:02.138Z,23.60
2024-03-08T06:30:06.372Z,22.38
2024-03-08T06:32:09.064Z,23.98
2024-03-08T06:34:13.141Z,24.35
2024-03-08T06:36:20.579Z,24.10
2024-03-08T06:40:26.246Z,21.50
2024-03-08T06:42:36.778Z,23.35
2024-03-08T06:44:43.627Z,24.60
2024-03-08T06:46:46.509Z,22.15
2024-03-08T06:48:51.300Z,23.08
2024-03-08T06:50:54.099Z,24.02
2024-03-08T06:52:56.842Z,21.40
2024-03-08T06:54:59.497Z,21.77
2024-03-08T06:57:02.462Z,20.92
2024-03-08T06:59:14.092Z,21.75
2024-03-08T07:01:16.970Z,22.77
2024-03-08T07:03:23.594Z,23.33
2024-03-08T07:05:30.115Z,22.77
2024-03-08T07:07:35.429Z,23.02
2024-03-08T07:09:38.404Z,22.00
2024-03-08T07:11:44.885Z,21.05
2024-03-08T07:13:48.412Z,22.77
2024-03-08T07:15:51.219Z,21.83
2024-03-08T07:17:54.558Z,22.95
2024-03-08T07:19:58.717Z,21.70
2024-03-08T07:22:01.580Z,21.77
2024-03-08T07:24:11.199Z,23.63
2024-03-08T07:26:21.456Z,21.08
2024-03-08T07:28:24.019Z,22.33
2024-03-08T07:30:46.132Z,20.55
2024-03-08T07:32:49.742Z,21.20
2024-03-08T07:34:53.145Z,21.60
2024-03-08T07:36:58.363Z,22.33
2024-03-08T07:39:02.131Z,21.90
2024-03-08T07:41:05.954Z,19.02
2024-03-08T07:43:12.730Z,19.35
2024-03-08T07:45:17.928Z,18.90
2024-03-08T07:47:23.586Z,20.35
2024-03-08T07:51:30.683Z,19.25
2024-03-08T07:53:33.330Z,20.10
2024-03-08T07:55:36.940Z,22.48
2024-03-08T07:57:39.585Z,20.67
2024-03-08T07:59:42.198Z,18.17
2024-03-08T08:01:45.617Z,18.17
2024-03-08T08:03:50.204Z,20.42
2024-03-08T08:05:52.793Z,22.30
2024-03-08T08:07:55.572Z,19.90
2024-03-08T08:10:23.733Z,19.33
2024-03-08T08:12:26.916Z,20.30
2024-03-08T08:14:29.270Z,19.83
2024-03-08T08:16:32.012Z,20.45
2024-03-08T08:18:34.976Z,20.77
2024-03-08T08:20:37.615Z,20.30
2024-03-08T08:22:47.398Z,21.08
2024-03-08T08:24:49.763Z,17.63
2024-03-08T08:26:52.465Z,19.35
2024-03-08T08:28:56.269Z,16.90
2024-03-08T08:30:59.043Z,19.15
2024-03-08T08:33:02.374Z,19.65
2024-03-08T08:35:14.170Z,19.63
2024-03-08T08:37:20.004Z,18.83
2024-03-08T08:39:24.525Z,21.27
2024-03-08T08:41:28.487Z,19.88
2024-03-08T08:43:30.986Z,19.50
2024-03-08T08:45:34.656Z,18.25
2024-03-08T08:47:37.649Z,19.75
2024-03-08T08:49:40.695Z,20.13
2024-03-08T08:51:43.550Z,18.10
2024-03-08T08:53:46.947Z,18.15
2024-03-08T08:55:50.156Z,19.52
2024-03-08T08:57:53.910Z,18.60
2024-03-08T08:59:57.049Z,19.13
2024-03-08T09:01:59.918Z,18.95
2024-03-08T09:04:02.890Z,20.08
2024-03-08T09:06:06.152Z,20.33
2024-03-08T09:08:09.940Z,18.17
2024-03-08T09:12:19.116Z,20.38
2024-03-08T09:14:21.923Z,21.00
2024-03-08T09:16:24.358Z,20.20
2024-03-08T09:18:26.937Z,21.40
2024-03-08T09:20:31.127Z,20.77
2024-03-08T09:22:33.716Z,22.05
2024-03-08T09:24:36.341Z,20.10
2024-03-08T09:26:39.530Z,20.60
2024-03-08T09:28:42.130Z,21.42
2024-03-08T09:30:54.048Z,21.17
2024-03-08T09:33:02.216Z,21.95
2024-03-08T09:35:08.452Z,20.80
2024-03-08T09:37:11.293Z,21.02
2024-03-08T09:39:18.525Z,23.02
2024-03-08T09:43:23.562Z,20.65
2024-03-08T09:45:27.398Z,20.67
2024-03-08T09:47:35.358Z,21.60
2024-03-08T09:49:39.115Z,20.08
2024-03-08T09:51:42.102Z,21.17
2024-03-08T09:53:45.438Z,22.70
2024-03-08T09:55:51.096Z,21.65
2024-03-08T09:58:14.599Z,22.30
2024-03-08T10:00:24.800Z,21.08
2024-03-08T10:02:27.984Z,19.92
2024-03-08T10:04:32.414Z,19.38
2024-03-08T10:06:35.194Z,21.30
2024-03-08T10:08:38.134Z,19.75
2024-03-08T10:10:41.306Z,19.95
2024-03-08T10:12:43.666Z,20.55
2024-03-08T10:14:47.931Z,20.33
2024-03-08T10:16:50.729Z,20.83
2024-03-08T10:18:55.181Z,19.65
2024-03-08T10:21:10.239Z,21.85
2024-03-08T10:23:13.176Z,20.55
2024-03-08T10:25:16.135Z,21.02
2024-03-08T10:27:19.342Z,20.27
2024-03-08T10:29:23.075Z,19.20
2024-03-08T10:31:25.893Z,20.25
2024-03-08T10:33:29.739Z,19.58
2024-03-08T10:35:33.326Z,18.92
2024-03-08T10:37:51.592Z,20.00
2024-03-08T10:40:12.567Z,19.55
2024-03-08T10:42:20.432Z,20.90
2024-03-08T10:44:32.523Z,19.70
2024-03-08T10:46:56.757Z,20.38
2024-03-08T10:49:04.276Z,18.42
2024-03-08T10:51:06.812Z,20.52
2024-03-08T10:53:12.936Z,19.88
2024-03-08T10:55:17.723Z,19.88
2024-03-08T10:57:23.112Z,20.35
2024-03-08T10:59:28.712Z,20.77
2024-03-08T11:01:32.143Z,19.35
2024-03-08T11:03:46.913Z,20.83
2024-03-08T11:05:50.226Z,19.98
2024-03-08T11:07:53.337Z,22.20
2024-03-08T11:09:57.908Z,21.80
2024-03-08T11:12:23.426Z,22.77
2024-03-08T11:14:53.346Z,20.55
2024-03-08T11:16:56.055Z,21.05
2024-03-08T11:19:07.188Z,21.65
2024-03-08T11:21:14.308Z,21.50
2024-03-08T11:23:24.670Z,18.70
2024-03-08T11:25:37.887Z,17.48
2024-03-08T11:27:40.745Z,17.85
2024-03-08T11:29:43.750Z,17.48
2024-03-08T11:31:47.653Z,18.40
2024-03-08T11:33:51.077Z,17.15
2024-03-08T11:35:53.702Z,17.77
2024-03-08T11:38:00.305Z,18.33
2024-03-08T11:40:06.150Z,18.52
2024-03-08T11:42:08.653Z,17.00
2024-03-08T11:44:13.352Z,17.33
2024-03-08T11:46:17.582Z,17.58
2024-03-08T11:48:20.152Z,18.38
2024-03-08T11:50:25.147Z,17.30
2024-03-08T11:52:28.272Z,18.45
2024-03-08T11:54:31.486Z,19.75
2024-03-08T11:56:33.913Z,19.13
2024-03-08T11:58:40.045Z,18.15
2024-03-08T12:00:42.802Z,18.23
2024-03-08T12:02:52.359Z,18.50
2024-03-08T12:04:59.328Z,18.00
2024-03-08T12:09:14.393Z,18.25
2024-03-08T12:11:19.626Z,18.58
2024-03-08T12:13:23.192Z,18.52
2024-03-08T12:15:26.386Z,19.52
2024-03-08T12:17:29.767Z,18.33
2024-03-08T12:19:32.383Z,20.73
2024-03-08T12:21:36.082Z,18.75
2024-03-08T12:23:40.921Z,19.13
2024-03-08T12:25:43.940Z,20.17
2024-03-08T12:27:47.415Z,20.15
2024-03-08T12:29:49.957Z,17.92
2024-03-08T12:31:57.104Z,17.77
2024-03-08T12:34:02.165Z,16.90
2024-03-08T12:36:08.579Z,19.13
2024-03-08T12:38:11.110Z,20.02
2024-03-08T12:40:18.223Z,19.98
2024-03-08T12:42:20.943Z,18.45
2024-03-08T12:44:24.033Z,21.00
2024-03-08T12:46:27.978Z,18.45
2024-03-08T12:48:35.891Z,19.85
2024-03-08T12:50:38.484Z,18.58
2024-03-08T12:52:41.234Z,17.77
2024-03-08T12:54:44.309Z,19.92
2024-03-08T12:56:46.704Z,19.20
2024-03-08T12:58:49.336Z,19.92
2024-03-08T13:00:54.014Z,18.65
2024-03-08T13:02:57.329Z,19.35
2024-03-08T13:05:00.472Z,20.10
2024-03-08T13:07:03.175Z,19.88
2024-03-08T13:09:07.094Z,20.45
2024-03-08T13:11:10.416Z,20.50
2024-03-08T13:13:13.986Z,21.13
2024-03-08T13:15:21.907Z,20.55
2024-03-08T13:17:24.879Z,19.40
2024-03-08T13:19:30.066Z,17.42
2024-03-08T13:21:33.276Z,21.23
2024-03-08T13:23:41.566Z,21.55
2024-03-08T13:25:44.108Z,19.92
2024-03-08T13:27:50.375Z,21.02
2024-03-08T13:29:53.391Z,19.73
2024-03-08T13:31:58.193Z,20.83
2024-03-08T13:34:01.010Z,19.73
2024-03-08T13:36:09.828Z,22.58
2024-03-08T13:38:15.127Z,21.80
2024-03-08T13:40:20.328Z,20.52
2024-03-08T13:42:24.815Z,20.50
2024-03-08T13:44:29.308Z,20.63
2024-03-08T13:46:31.865Z,19.65
2024-03-08T13:48:35.352Z,20.73
2024-03-08T13:50:37.832Z,22.17
2024-03-08T13:52:41.381Z,20.83
2024-03-08T13:54:44.346Z,20.45
2024-03-08T13:56:48.035Z,21.00
2024-03-08T13:58:53.166Z,20.42
2024-03-08T14:00:56.804Z,20.20
2024-03-08T14:03:00.425Z,22.05
2024-03-08T14:05:04.209Z,19.58
2024-03-08T14:07:09.562Z,21.15
2024-03-08T14:09:18.390Z,18.83
2024-03-08T14:11:21.088Z,20.58
2024-03-08T14:13:23.678Z,19.98
2024-03-08T14:15:26.608Z,20.63
2024-03-08T14:17:32.671Z,19.85
2024-03-08T14:19:37.968Z,19.90
2024-03-08T14:21:40.966Z,20.67
2024-03-08T14:23:44.571Z,19.85
2024-03-08T14:25:47.959Z,18.27
2024-03-08T14:27:55.640Z,18.42
2024-03-08T14:29:58.581Z,18.63
2024-03-08T14:32:02.161Z,20.02
2024-03-08T14:34:05.349Z,18.23
2024-03-08T14:36:07.986Z,17.58
2024-03-08T14:38:12.064Z,18.30
2024-03-08T14:40:17.045Z,19.70
2024-03-08T14:42:20.672Z,19.60
2024-03-08T14:44:27.520Z,18.27
2024-03-08T14:46:31.093Z,17.65
2024-03-08T14:48:33.861Z,17.02
2024-03-08T14:50:38.637Z,17.20
2024-03-08T14:52:41.844Z,17.55
2024-03-08T14:54:44.958Z,18.40
2024-03-08T14:56:47.843Z,19.13
2024-03-08T14:58:53.850Z,16.85
2024-03-08T15:00:56.915Z,18.70
2024-03-08T15:02:59.812Z,16.90
2024-03-08T15:05:03.445Z,16.70
2024-03-08T15:07:07.371Z,17.80
2024-03-08T15:09:18.563Z,17.73
2024-03-08T15:11:24.967Z,18.67
2024-03-08T15:13:40.389Z,18.83
2024-03-08T15:15:45.204Z,18.52
2024-03-08T15:17:48.665Z,18.48
2024-03-08T15:19:52.064Z,19.10
2024-03-08T15:21:58.025Z,18.65
2024-03-08T15:24:01.448Z,17.55
2024-03-08T15:26:05.286Z,18.52
2024-03-08T15:28:14.550Z,18.77
2024-03-08T15:30:18.237Z,17.30
2024-03-08T15:32:23.629Z,18.95
2024-03-08T15:34:27.519Z,16.90
2024-03-08T15:36:32.292Z,16.75
2024-03-08T15:38:34.525Z,15.93
2024-03-08T15:40:36.849Z,17.38
2024-03-08T15:42:39.280Z,18.55
2024-03-08T15:44:44.977Z,18.15
2024-03-08T15:46:49.593Z,17.45
2024-03-08T15:48:55.624Z,18.77
2024-03-08T15:50:58.670Z,18.35
2024-03-08T15:53:00.950Z,16.77
2024-03-08T15:55:03.734Z,19.02
2024-03-08T15:57:09.850Z,18.33
2024-03-08T15:59:12.354Z,16.17
2024-03-08T16:01:17.903Z,16.45
2024-03-08T16:03:21.891Z,17.77
2024-03-08T16:05:24.416Z,16.48
2024-03-08T16:07:28.138Z,17.77
2024-03-08T16:09:30.856Z,19.52
2024-03-08T16:11:34.603Z,21.20
2024-03-08T16:13:39.636Z,19.45
2024-03-08T16:15:46.719Z,27.65
2024-03-08T16:17:50.470Z,26.90
2024-03-08T16:19:52.816Z,26.13
2024-03-08T16:21:55.402Z,26.98
2024-03-08T16:23:58.394Z,30.67
2024-03-08T16:26:01.007Z,29.05
2024-03-08T16:28:09.528Z,25.95
2024-03-08T16:30:17.116Z,25.58
2024-03-08T16:32:21.733Z,26.77
2024-03-08T16:34:24.735Z,26.10
2024-03-08T16:36:28.661Z,21.88
2024-03-08T16:38:33.758Z,21.20
2024-03-08T16:40:38.400Z,19.35
2024-03-08T16:42:41.382Z,19.00
2024-03-08T16:44:43.838Z,19.80
2024-03-08T16:46:48.021Z,20.85
2024-03-08T16:48:50.917Z,23.52
2024-03-08T16:50:56.063Z,30.75
2024-03-08T16:53:01.180Z,30.35
2024-03-08T16:55:08.180Z,32.58
2024-03-08T16:57:15.823Z,28.83
2024-03-08T16:59:18.263Z,25.13
2024-03-08T17:01:20.720Z,22.67
2024-03-08T17:03:23.183Z,33.40
2024-03-08T17:05:30.326Z,36.38
2024-03-08T17:07:34.671Z,33.97
2024-03-08T17:09:38.792Z,32.63
2024-03-08T17:11:41.493Z,27.38
2024-03-08T17:13:45.537Z,24.95
2024-03-08T17:15:50.484Z,22.13
2024-03-08T17:18:00.738Z,21.20
2024-03-08T17:20:08.169Z,20.05
2024-03-08T17:22:13.146Z,18.15
2024-03-08T17:24:18.598Z,19.17
2024-03-08T17:26:21.286Z,17.63
2024-03-08T17:28:23.999Z,17.42
2024-03-08T17:30:29.305Z,18.08
2024-03-08T17:32:35.269Z,19.45
2024-03-08T17:34:38.857Z,17.65
2024-03-08T17:36:42.053Z,18.15
2024-03-08T17:38:50.279Z,20.77
2024-03-08T17:40:53.175Z,19.83
2024-03-08T17:43:01.317Z,18.00
2024-03-08T17:45:07.224Z,19.17
2024-03-08T17:47:09.831Z,22.17
2024-03-08T17:49:13.176Z,22.58
2024-03-08T17:51:16.264Z,22.33
2024-03-08T17:53:20.306Z,19.75
2024-03-08T17:55:25.586Z,20.73
2024-03-08T17:57:28.837Z,20.33
2024-03-08T17:59:31.559Z,20.02
2024-03-08T18:01:37.319Z,18.73
2024-03-08T18:03:40.031Z,18.73
2024-03-08T18:05:47.114Z,19.80
2024-03-08T18:07:49.862Z,20.77
2024-03-08T18:09:52.613Z,20.92
2024-03-08T18:11:56.294Z,22.52
2024-03-08T18:13:58.942Z,22.90
2024-03-08T18:16:01.657Z,23.42
2024-03-08T18:18:06.428Z,26.20
2024-03-08T18:20:15.741Z,23.85
2024-03-08T18:22:18.517Z,24.00
2024-03-08T18:24:22.193Z,25.30
2024-03-08T18:26:25.865Z,24.60
2024-03-08T18:28:29.838Z,25.48
2024-03-08T18:30:33.828Z,24.38
2024-03-08T18:32:36.294Z,25.75
2024-03-08T18:34:43.609Z,23.92
2024-03-08T18:36:46.906Z,24.00
2024-03-08T18:38:50.366Z,23.48
2024-03-08T18:40:54.041Z,24.50
2024-03-08T18:42:57.504Z,24.73
2024-03-08T18:45:00.526Z,25.35
2024-03-08T18:47:03.069Z,24.95
2024-03-08T18:49:06.567Z,24.17
2024-03-08T18:51:09.234Z,24.80
2024-03-08T18:53:11.951Z,23.08
2024-03-08T18:55:23.007Z,22.83
2024-03-08T18:57:28.332Z,22.52
2024-03-08T18:59:32.301Z,22.38
2024-03-08T19:01:38.350Z,21.75
2024-03-08T19:03:43.005Z,23.70
2024-03-08T19:05:48.166Z,23.77
2024-03-08T19:07:56.226Z,21.13
2024-03-08T19:09:58.995Z,22.70
2024-03-08T19:12:04.836Z,24.10
2024-03-08T19:14:09.769Z,22.67
2024-03-08T19:16:17.514Z,22.48
2024-03-08T19:18:20.403Z,23.30
2024-03-08T19:20:25.863Z,23.35
2024-03-08T19:22:29.983Z,24.38
2024-03-08T19:24:36.577Z,25.95
2024-03-08T19:26:39.121Z,25.80
2024-03-08T19:28:41.893Z,28.33
2024-03-08T19:30:44.834Z,29.75
2024-03-08T19:32:47.820Z,25.65
2024-03-08T19:34:51.497Z,27.23
2024-03-08T19:36:55.030Z,28.33
2024-03-08T19:38:59.662Z,28.25
2024-03-08T19:41:04.239Z,29.13
2024-03-08T19:43:08.557Z,28.48
2024-03-08T19:45:11.755Z,26.55
2024-03-08T19:47:18.004Z,27.63
2024-03-08T19:49:20.983Z,28.90
2024-03-08T19:51:23.858Z,27.58
2024-03-08T19:53:27.225Z,26.77
2024-03-08T19:55:29.974Z,27.00
2024-03-08T19:57:32.813Z,25.30
2024-03-08T19:59:43.356Z,26.20
2024-03-08T20:01:46.734Z,26.38
2024-03-08T20:03:51.766Z,29.23
2024-03-08T20:05:56.917Z,27.08
2024-03-08T20:08:09.695Z,25.20
2024-03-08T20:10:16.841Z,24.95
2024-03-08T20:12:19.824Z,26.80
2024-03-08T20:14:22.914Z,24.20
2024-03-08T20:16:25.822Z,26.65
2024-03-08T20:18:28.707Z,24.70
2024-03-08T20:20:31.906Z,26.15
2024-03-08T20:22:34.684Z,24.80
2024-03-08T20:24:37.412Z,26.48
2024-03-08T20:26:40.463Z,25.33
2024-03-08T20:28:43.807Z,23.77
2024-03-08T20:30:48.579Z,26.73
2024-03-08T20:33:05.719Z,23.85
2024-03-08T20:35:12.105Z,27.30
2024-03-08T20:37:15.203Z,25.65
2024-03-08T20:39:17.621Z,25.95
2024-03-08T20:41:20.253Z,26.50
2024-03-08T20:43:25.340Z,24.65
2024-03-08T20:45:28.494Z,26.05
2024-03-08T20:47:36.935Z,24.95
2024-03-08T20:49:39.926Z,25.00
2024-03-08T20:51:43.158Z,26.45
2024-03-08T20:53:46.234Z,25.63
2024-03-08T20:55:50.389Z,22.75
2024-03-08T20:57:54.542Z,27.50
2024-03-08T20:59:57.532Z,25.80
2024-03-08T21:02:00.896Z,26.73
2024-03-08T21:04:05.466Z,25.27
2024-03-08T21:06:09.154Z,24.40
2024-03-08T21:08:14.352Z,24.30
2024-03-08T21:10:17.204Z,21.88
2024-03-08T21:12:22.466Z,23.02
2024-03-08T21:14:40.827Z,22.02
2024-03-08T21:16:51.680Z,21.80
2024-03-08T21:18:55.454Z,23.00
2024-03-08T21:20:57.840Z,25.58
2024-03-08T21:23:01.325Z,27.38
2024-03-08T21:25:05.626Z,26.98
2024-03-08T21:27:09.473Z,26.95
2024-03-08T21:29:12.375Z,28.45
2024-03-08T21:31:15.496Z,29.27
2024-03-08T21:33:18.445Z,26.17
2024-03-08T21:35:24.119Z,27.27
2024-03-08T21:37:26.867Z,26.63
2024-03-08T21:39:29.376Z,28.08
2024-03-08T21:41:32.233Z,26.75
2024-03-08T21:43:36.414Z,26.88
2024-03-08T21:45:39.470Z,30.45
2024-03-08T21:47:42.451Z,26.92
2024-03-08T21:49:46.445Z,26.65
2024-03-08T21:51:49.239Z,28.77
2024-03-08T21:53:54.598Z,27.75
2024-03-08T21:55:58.782Z,26.20
2024-03-08T21:58:01.487Z,24.63
2024-03-08T22:00:13.983Z,24.55
2024-03-08T22:02:17.080Z,25.45
2024-03-08T22:04:21.738Z,26.55
2024-03-08T22:06:24.453Z,24.40
2024-03-08T22:08:28.258Z,26.77
2024-03-08T22:10:31.160Z,26.42
2024-03-08T22:12:35.574Z,27.13
2024-03-08T22:14:38.728Z,29.35
2024-03-08T22:16:42.154Z,28.13
2024-03-08T22:18:46.578Z,26.45
2024-03-08T22:20:49.160Z,26.40
2024-03-08T22:22:52.436Z,29.80
2024-03-08T22:24:57.546Z,30.23
2024-03-08T22:27:02.315Z,29.52
2024-03-08T22:29:05.508Z,29.23
2024-03-08T22:31:08.693Z,29.73
2024-03-08T22:33:11.543Z,32.72
2024-03-08T22:35:15.508Z,33.08
2024-03-08T22:37:18.342Z,33.33
2024-03-08T22:39:25.247Z,36.80
2024-03-08T22:41:30.302Z,37.83
2024-03-08T22:43:36.525Z,39.08
2024-03-08T22:45:39.778Z,42.13
2024-03-08T22:47:47.582Z,40.40
2024-03-08T22:49:50.711Z,39.88
2024-03-08T22:51:54.030Z,38.40
2024-03-08T22:53:56.257Z,35.85
2024-03-08T22:55:59.313Z,37.40
2024-03-08T22:58:03.092Z,36.15
2024-03-08T23:00:25.384Z,34.97
2024-03-08T23:02:28.838Z,35.13
2024-03-08T23:04:31.827Z,36.38
2024-03-08T23:06:37.423Z,33.03
2024-03-08T23:08:42.381Z,35.30
2024-03-08T23:10:45.019Z,31.08
2024-03-08T23:12:47.649Z,32.70
2024-03-08T23:14:50.251Z,34.42
2024-03-08T23:16:53.252Z,32.05
2024-03-08T23:18:56.916Z,34.08
2024-03-08T23:20:59.626Z,32.30
2024-03-08T23:23:07.309Z,38.72
2024-03-08T23:25:12.698Z,31.90
2024-03-08T23:27:15.401Z,33.42
2024-03-08T23:29:19.184Z,33.78
2024-03-08T23:31:23.142Z,36.28
2024-03-08T23:33:25.806Z,39.15
2024-03-08T23:35:29.076Z,37.08
2024-03-08T23:37:31.366Z,36.60
2024-03-08T23:39:33.782Z,35.30
2024-03-08T23:41:37.028Z,33.67
2024-03-08T23:43:39.292Z,34.15
2024-03-08T23:45:42.466Z,33.17
2024-03-08T23:47:46.676Z,32.90
2024-03-08T23:49:54.089Z,32.00
2024-03-08T23:51:56.700Z,33.60
2024-03-08T23:53:59.116Z,33.38
2024-03-08T23:56:01.861Z,35.47
2024-03-08T23:58:11.856Z,33.35
